UAL1281 KDEN-KSAN
Flight info
| Callsign | UAL1281 |
|---|---|
| Flight time | 2h 14m |
| Altitude | 30000 |
| Route | BAYLR6 TEHRU PLNDL Q86 TTRUE LUCKI1 |
| Aircraft | A21N/M-SDE2E3FGHIJ1RWXY/LB1 |
Departure
| Time | 2026-05-04 14:26 |
|---|---|
| Airport | Denver International Airport (KDEN) |
Arrival
| Time | 2026-05-04 16:40 |
|---|---|
| Airport | San Diego International Airport (KSAN) |
| Time | Latitude | Longitude | Altitude | Speed | Heading |
|---|---|---|---|---|---|
| 2026-05-04 13:37 | 39.85327 | -104.67467 | 5368 ft | 0 kts | 0° |
| 2026-05-04 14:17 | 39.85290 | -104.67468 | 5367 ft | 4 kts | 18° |
| 2026-05-04 14:17 | 39.85278 | -104.67485 | 5367 ft | 4 kts | 88° |
| 2026-05-04 14:17 | 39.85278 | -104.67520 | 5368 ft | 0 kts | 90° |
| 2026-05-04 14:20 | 39.85278 | -104.67519 | 5368 ft | 1 kts | 90° |
| 2026-05-04 14:21 | 39.85278 | -104.67429 | 5369 ft | 9 kts | 90° |
| 2026-05-04 14:21 | 39.85276 | -104.67332 | 5369 ft | 13 kts | 91° |
| 2026-05-04 14:21 | 39.85275 | -104.67211 | 5370 ft | 14 kts | 90° |
| 2026-05-04 14:21 | 39.85274 | -104.67075 | 5371 ft | 16 kts | 91° |
| 2026-05-04 14:22 | 39.85273 | -104.66926 | 5369 ft | 17 kts | 89° |
| 2026-05-04 14:22 | 39.85273 | -104.66764 | 5369 ft | 19 kts | 91° |
| 2026-05-04 14:22 | 39.85274 | -104.66591 | 5367 ft | 20 kts | 77° |
| 2026-05-04 14:22 | 39.85295 | -104.66410 | 5371 ft | 21 kts | 91° |
| 2026-05-04 14:23 | 39.85320 | -104.66241 | 5369 ft | 9 kts | 23° |
| 2026-05-04 14:23 | 39.85391 | -104.66235 | 5370 ft | 11 kts | 359° |
| 2026-05-04 14:23 | 39.85475 | -104.66236 | 5368 ft | 13 kts | 0° |
| 2026-05-04 14:24 | 39.85570 | -104.66235 | 5369 ft | 15 kts | 0° |
| 2026-05-04 14:24 | 39.85671 | -104.66226 | 5369 ft | 13 kts | 38° |
| 2026-05-04 14:24 | 39.85683 | -104.66104 | 5372 ft | 15 kts | 89° |
| 2026-05-04 14:24 | 39.85669 | -104.66022 | 5370 ft | 8 kts | 158° |
| 2026-05-04 14:25 | 39.85616 | -104.66020 | 5371 ft | 17 kts | 181° |
| 2026-05-04 14:25 | 39.84455 | -104.66032 | 5372 ft | 144 kts | 181° |
| 2026-05-04 14:25 | 39.83337 | -104.66046 | 5379 ft | 176 kts | 182° |
| 2026-05-04 14:26 | 39.82125 | -104.66025 | 5906 ft | 174 kts | 182° |
| 2026-05-04 14:26 | 39.80892 | -104.66061 | 6366 ft | 183 kts | 187° |
| 2026-05-04 14:26 | 39.79659 | -104.66530 | 6615 ft | 191 kts | 217° |
| 2026-05-04 14:26 | 39.78657 | -104.67730 | 6897 ft | 203 kts | 227° |
| 2026-05-04 14:27 | 39.77619 | -104.69080 | 7305 ft | 219 kts | 226° |
| 2026-05-04 14:27 | 39.76593 | -104.70617 | 7738 ft | 232 kts | 238° |
| 2026-05-04 14:27 | 39.75917 | -104.72603 | 8008 ft | 253 kts | 260° |
| 2026-05-04 14:27 | 39.75906 | -104.74966 | 8359 ft | 271 kts | 277° |
| 2026-05-04 14:28 | 39.76178 | -104.77425 | 9008 ft | 278 kts | 279° |
| 2026-05-04 14:28 | 39.76464 | -104.79931 | 9757 ft | 283 kts | 279° |
| 2026-05-04 14:28 | 39.76746 | -104.82498 | 10310 ft | 294 kts | 279° |
| 2026-05-04 14:28 | 39.77032 | -104.85218 | 10605 ft | 314 kts | 278° |
| 2026-05-04 14:29 | 39.77330 | -104.91187 | 11095 ft | 355 kts | 263° |
| 2026-05-04 14:29 | 39.76003 | -104.97640 | 11981 ft | 378 kts | 255° |
| 2026-05-04 14:30 | 39.75250 | -105.00926 | 12675 ft | 382 kts | 255° |
| 2026-05-04 14:30 | 39.74359 | -105.04191 | 13343 ft | 386 kts | 249° |
| 2026-05-04 14:30 | 39.72232 | -105.10677 | 14542 ft | 393 kts | 249° |
| 2026-05-04 14:31 | 39.71150 | -105.13958 | 15128 ft | 397 kts | 249° |
| 2026-05-04 14:31 | 39.68968 | -105.20600 | 16301 ft | 403 kts | 249° |
| 2026-05-04 14:32 | 39.66750 | -105.27347 | 17471 ft | 410 kts | 248° |
| 2026-05-04 14:32 | 39.65620 | -105.30754 | 18052 ft | 413 kts | 248° |
| 2026-05-04 14:32 | 39.64478 | -105.34198 | 18559 ft | 416 kts | 248° |
| 2026-05-04 14:32 | 39.63333 | -105.37649 | 19085 ft | 418 kts | 248° |
| 2026-05-04 14:33 | 39.62185 | -105.41125 | 19606 ft | 420 kts | 248° |
| 2026-05-04 14:33 | 39.61032 | -105.44620 | 20148 ft | 422 kts | 248° |
| 2026-05-04 14:33 | 39.59875 | -105.48119 | 20656 ft | 425 kts | 248° |
| 2026-05-04 14:33 | 39.58741 | -105.51547 | 21149 ft | 427 kts | 248° |
| 2026-05-04 14:34 | 39.57572 | -105.55083 | 21649 ft | 429 kts | 248° |
| 2026-05-04 14:34 | 39.56392 | -105.58637 | 22142 ft | 431 kts | 248° |
| 2026-05-04 14:34 | 39.55218 | -105.62224 | 22618 ft | 433 kts | 249° |
| 2026-05-04 14:34 | 39.54175 | -105.65902 | 23097 ft | 434 kts | 251° |
| 2026-05-04 14:35 | 39.53167 | -105.69595 | 23557 ft | 436 kts | 251° |
| 2026-05-04 14:35 | 39.52152 | -105.73306 | 23920 ft | 438 kts | 251° |
| 2026-05-04 14:35 | 39.51125 | -105.77027 | 24313 ft | 439 kts | 251° |
| 2026-05-04 14:35 | 39.50089 | -105.80749 | 24703 ft | 440 kts | 251° |
| 2026-05-04 14:36 | 39.49055 | -105.84472 | 25079 ft | 441 kts | 251° |
| 2026-05-04 14:36 | 39.48013 | -105.88224 | 25448 ft | 442 kts | 251° |
| 2026-05-04 14:36 | 39.46968 | -105.91971 | 25807 ft | 443 kts | 251° |
| 2026-05-04 14:36 | 39.45921 | -105.95716 | 26179 ft | 442 kts | 251° |
| 2026-05-04 14:37 | 39.44875 | -105.99453 | 26649 ft | 440 kts | 251° |
| 2026-05-04 14:37 | 39.43836 | -106.03153 | 27193 ft | 435 kts | 251° |
| 2026-05-04 14:37 | 39.42806 | -106.06824 | 27733 ft | 431 kts | 252° |
| 2026-05-04 14:37 | 39.41786 | -106.10462 | 28203 ft | 428 kts | 252° |
| 2026-05-04 14:38 | 39.40773 | -106.14064 | 28667 ft | 425 kts | 252° |
| 2026-05-04 14:38 | 39.39780 | -106.17592 | 29145 ft | 422 kts | 252° |
| 2026-05-04 14:38 | 39.38777 | -106.21145 | 29625 ft | 419 kts | 252° |
| 2026-05-04 14:38 | 39.37765 | -106.24709 | 30064 ft | 416 kts | 252° |
| 2026-05-04 14:39 | 39.36776 | -106.28211 | 30698 ft | 413 kts | 252° |
| 2026-05-04 14:39 | 39.35795 | -106.31673 | 31119 ft | 409 kts | 253° |
| 2026-05-04 14:39 | 39.34835 | -106.35055 | 31518 ft | 404 kts | 253° |
| 2026-05-04 14:40 | 39.32910 | -106.41842 | 32306 ft | 395 kts | 253° |
| 2026-05-04 14:40 | 39.31979 | -106.45116 | 32632 ft | 392 kts | 253° |
| 2026-05-04 14:40 | 39.31042 | -106.48402 | 32945 ft | 389 kts | 254° |
| 2026-05-04 14:40 | 39.30110 | -106.51661 | 33253 ft | 386 kts | 254° |
| 2026-05-04 14:41 | 39.29186 | -106.54900 | 33532 ft | 383 kts | 254° |
| 2026-05-04 14:41 | 39.28261 | -106.58122 | 33801 ft | 381 kts | 254° |
| 2026-05-04 14:41 | 39.26436 | -106.64500 | 34056 ft | 377 kts | 254° |
| 2026-05-04 14:42 | 39.24554 | -106.70807 | 34105 ft | 378 kts | 250° |
| 2026-05-04 14:42 | 39.21615 | -106.76568 | 34138 ft | 386 kts | 238° |
| 2026-05-04 14:43 | 39.18272 | -106.81936 | 34132 ft | 386 kts | 238° |
| 2026-05-04 14:43 | 39.14937 | -106.87364 | 34131 ft | 386 kts | 239° |
| 2026-05-04 14:44 | 39.13272 | -106.90078 | 33887 ft | 386 kts | 239° |
| 2026-05-04 14:44 | 39.11608 | -106.92796 | 33865 ft | 387 kts | 239° |
| 2026-05-04 14:44 | 39.08270 | -106.98235 | 33869 ft | 387 kts | 239° |
| 2026-05-04 14:45 | 39.05471 | -107.02790 | 33871 ft | 387 kts | 239° |
| 2026-05-04 14:45 | 39.02155 | -107.08177 | 33881 ft | 385 kts | 238° |
| 2026-05-04 14:46 | 38.98873 | -107.13500 | 33884 ft | 385 kts | 238° |
| 2026-05-04 14:46 | 38.95537 | -107.18879 | 33879 ft | 382 kts | 238° |
| 2026-05-04 14:47 | 38.92247 | -107.24195 | 33890 ft | 379 kts | 239° |
| 2026-05-04 14:47 | 38.88963 | -107.29507 | 33902 ft | 380 kts | 239° |
| 2026-05-04 14:48 | 38.85678 | -107.34812 | 33900 ft | 380 kts | 239° |
| 2026-05-04 14:48 | 38.82384 | -107.40105 | 33896 ft | 380 kts | 239° |
| 2026-05-04 14:49 | 38.79094 | -107.45392 | 33900 ft | 378 kts | 239° |
| 2026-05-04 14:49 | 38.75813 | -107.50656 | 33900 ft | 378 kts | 238° |
| 2026-05-04 14:50 | 38.72518 | -107.55926 | 33901 ft | 378 kts | 239° |
| 2026-05-04 14:50 | 38.69230 | -107.61185 | 33897 ft | 378 kts | 239° |
| 2026-05-04 14:51 | 38.65942 | -107.66425 | 33879 ft | 373 kts | 239° |
| 2026-05-04 14:51 | 38.62703 | -107.71577 | 33891 ft | 371 kts | 239° |
| 2026-05-04 14:52 | 38.59487 | -107.76687 | 33891 ft | 370 kts | 239° |
| 2026-05-04 14:52 | 38.56263 | -107.81802 | 34070 ft | 369 kts | 239° |
| 2026-05-04 14:53 | 38.53045 | -107.86911 | 34083 ft | 369 kts | 239° |
| 2026-05-04 14:53 | 38.49819 | -107.92016 | 34079 ft | 369 kts | 239° |
| 2026-05-04 14:54 | 38.46615 | -107.97080 | 34072 ft | 369 kts | 239° |
| 2026-05-04 14:54 | 38.43388 | -108.02179 | 34046 ft | 369 kts | 238° |
| 2026-05-04 14:55 | 38.40160 | -108.07268 | 34027 ft | 369 kts | 238° |
| 2026-05-04 14:55 | 38.36926 | -108.12354 | 33962 ft | 368 kts | 239° |
| 2026-05-04 14:56 | 38.33700 | -108.17417 | 33942 ft | 367 kts | 239° |
| 2026-05-04 14:56 | 38.30475 | -108.22474 | 33899 ft | 368 kts | 239° |
| 2026-05-04 14:57 | 38.27250 | -108.27523 | 33898 ft | 368 kts | 239° |
| 2026-05-04 14:57 | 38.24023 | -108.32570 | 33895 ft | 368 kts | 239° |
| 2026-05-04 14:58 | 38.20810 | -108.37584 | 33901 ft | 368 kts | 239° |
| 2026-05-04 14:58 | 38.17573 | -108.42628 | 33903 ft | 368 kts | 239° |
| 2026-05-04 14:59 | 38.14363 | -108.47624 | 33890 ft | 366 kts | 238° |
| 2026-05-04 15:00 | 38.09524 | -108.55134 | 33893 ft | 366 kts | 238° |
| 2026-05-04 15:00 | 38.06304 | -108.60119 | 33881 ft | 363 kts | 239° |
| 2026-05-04 15:01 | 38.01523 | -108.67518 | 33892 ft | 362 kts | 239° |
| 2026-05-04 15:01 | 37.98332 | -108.72449 | 33888 ft | 362 kts | 239° |
| 2026-05-04 15:02 | 37.95135 | -108.77380 | 33889 ft | 362 kts | 239° |
| 2026-05-04 15:02 | 37.91946 | -108.82282 | 33892 ft | 358 kts | 239° |
| 2026-05-04 15:03 | 37.88778 | -108.87153 | 33899 ft | 358 kts | 238° |
| 2026-05-04 15:03 | 37.85629 | -108.91987 | 33888 ft | 358 kts | 238° |
| 2026-05-04 15:04 | 37.82452 | -108.96854 | 33897 ft | 358 kts | 238° |
| 2026-05-04 15:04 | 37.79279 | -109.01710 | 33891 ft | 358 kts | 238° |
| 2026-05-04 15:05 | 37.76101 | -109.06562 | 33882 ft | 356 kts | 238° |
| 2026-05-04 15:05 | 37.72939 | -109.11384 | 33912 ft | 356 kts | 238° |
| 2026-05-04 15:06 | 37.69783 | -109.16196 | 33937 ft | 354 kts | 237° |
| 2026-05-04 15:07 | 37.65065 | -109.23370 | 33986 ft | 354 kts | 237° |
| 2026-05-04 15:07 | 37.61913 | -109.28156 | 34014 ft | 354 kts | 237° |
| 2026-05-04 15:08 | 37.58763 | -109.32930 | 34038 ft | 354 kts | 237° |
| 2026-05-04 15:08 | 37.55609 | -109.37701 | 34060 ft | 354 kts | 237° |
| 2026-05-04 15:09 | 37.52446 | -109.42477 | 34063 ft | 354 kts | 237° |
| 2026-05-04 15:09 | 37.49289 | -109.47244 | 34060 ft | 354 kts | 236° |
| 2026-05-04 15:10 | 37.44597 | -109.54308 | 34012 ft | 346 kts | 236° |
| 2026-05-04 15:11 | 37.39963 | -109.61276 | 33988 ft | 346 kts | 236° |
| 2026-05-04 15:11 | 37.36891 | -109.65885 | 33962 ft | 346 kts | 236° |
| 2026-05-04 15:12 | 37.33822 | -109.70484 | 33887 ft | 347 kts | 236° |
| 2026-05-04 15:12 | 37.30721 | -109.75123 | 33881 ft | 346 kts | 236° |
| 2026-05-04 15:13 | 37.27620 | -109.79756 | 33886 ft | 346 kts | 236° |
| 2026-05-04 15:13 | 37.24517 | -109.84386 | 33880 ft | 347 kts | 236° |
| 2026-05-04 15:14 | 37.21409 | -109.89014 | 33878 ft | 346 kts | 236° |
| 2026-05-04 15:14 | 37.18300 | -109.93638 | 33876 ft | 347 kts | 236° |
| 2026-05-04 15:15 | 37.15200 | -109.98246 | 33870 ft | 345 kts | 236° |
| 2026-05-04 15:15 | 37.12095 | -110.02847 | 33877 ft | 346 kts | 236° |
| 2026-05-04 15:16 | 37.07437 | -110.09747 | 33860 ft | 346 kts | 236° |
| 2026-05-04 15:17 | 37.02772 | -110.16642 | 33855 ft | 347 kts | 235° |
| 2026-05-04 15:17 | 36.98106 | -110.23525 | 33856 ft | 347 kts | 235° |
| 2026-05-04 15:18 | 36.94980 | -110.28126 | 33856 ft | 347 kts | 235° |
| 2026-05-04 15:19 | 36.90274 | -110.35035 | 33855 ft | 347 kts | 235° |
| 2026-05-04 15:19 | 36.85575 | -110.41922 | 33837 ft | 347 kts | 235° |
| 2026-05-04 15:20 | 36.82492 | -110.46440 | 33850 ft | 349 kts | 236° |
| 2026-05-04 15:20 | 36.79336 | -110.51064 | 33862 ft | 350 kts | 235° |
| 2026-05-04 15:21 | 36.76167 | -110.55697 | 33855 ft | 351 kts | 235° |
| 2026-05-04 15:22 | 36.71413 | -110.62626 | 33858 ft | 350 kts | 235° |
| 2026-05-04 15:22 | 36.66658 | -110.69540 | 33855 ft | 350 kts | 235° |
| 2026-05-04 15:23 | 36.63511 | -110.74115 | 33850 ft | 350 kts | 235° |
| 2026-05-04 15:23 | 36.60339 | -110.78711 | 33850 ft | 350 kts | 235° |
| 2026-05-04 15:24 | 36.53984 | -110.87902 | 33849 ft | 351 kts | 234° |
| 2026-05-04 15:25 | 36.50800 | -110.92503 | 33847 ft | 351 kts | 234° |
| 2026-05-04 15:26 | 36.46054 | -110.99348 | 33850 ft | 350 kts | 234° |
| 2026-05-04 15:26 | 36.41278 | -111.06213 | 33849 ft | 350 kts | 234° |
| 2026-05-04 15:27 | 36.36499 | -111.13080 | 33850 ft | 350 kts | 234° |
| 2026-05-04 15:28 | 36.31798 | -111.19816 | 33854 ft | 350 kts | 234° |
| 2026-05-04 15:29 | 36.27009 | -111.26662 | 33854 ft | 351 kts | 234° |
| 2026-05-04 15:30 | 36.16356 | -111.41846 | 33822 ft | 350 kts | 235° |
| 2026-05-04 15:31 | 36.11034 | -111.49404 | 33840 ft | 351 kts | 235° |
| 2026-05-04 15:32 | 36.03530 | -111.60021 | 33845 ft | 351 kts | 235° |
| 2026-05-04 15:34 | 35.95527 | -111.71332 | 33847 ft | 350 kts | 235° |
| 2026-05-04 15:34 | 35.90703 | -111.78130 | 33868 ft | 352 kts | 235° |
| 2026-05-04 15:35 | 35.85851 | -111.84946 | 34028 ft | 352 kts | 235° |
| 2026-05-04 15:36 | 35.81737 | -111.92300 | 34095 ft | 346 kts | 244° |
| 2026-05-04 15:36 | 35.79413 | -111.97492 | 34129 ft | 346 kts | 244° |
| 2026-05-04 15:37 | 35.77081 | -112.02667 | 34141 ft | 345 kts | 244° |
| 2026-05-04 15:37 | 35.74741 | -112.07834 | 34128 ft | 345 kts | 244° |
| 2026-05-04 15:38 | 35.72389 | -112.12983 | 34103 ft | 345 kts | 244° |
| 2026-05-04 15:38 | 35.69989 | -112.18104 | 34068 ft | 345 kts | 243° |
| 2026-05-04 15:39 | 35.67593 | -112.23205 | 34021 ft | 345 kts | 243° |
| 2026-05-04 15:40 | 35.63989 | -112.30861 | 33951 ft | 345 kts | 243° |
| 2026-05-04 15:40 | 35.61588 | -112.35958 | 33901 ft | 344 kts | 243° |
| 2026-05-04 15:41 | 35.59187 | -112.41054 | 33884 ft | 345 kts | 243° |
| 2026-05-04 15:41 | 35.56803 | -112.46162 | 33885 ft | 345 kts | 243° |
| 2026-05-04 15:42 | 35.54416 | -112.51265 | 33859 ft | 344 kts | 243° |
| 2026-05-04 15:42 | 35.52026 | -112.56389 | 33848 ft | 348 kts | 243° |
| 2026-05-04 15:43 | 35.49625 | -112.61530 | 33854 ft | 349 kts | 243° |
| 2026-05-04 15:43 | 35.47207 | -112.66694 | 33854 ft | 349 kts | 243° |
| 2026-05-04 15:44 | 35.44783 | -112.71855 | 33849 ft | 349 kts | 243° |
| 2026-05-04 15:44 | 35.42356 | -112.77004 | 33849 ft | 349 kts | 243° |
| 2026-05-04 15:45 | 35.39934 | -112.82152 | 33844 ft | 346 kts | 242° |
| 2026-05-04 15:45 | 35.37527 | -112.87260 | 33844 ft | 346 kts | 243° |
| 2026-05-04 15:46 | 35.35124 | -112.92361 | 33842 ft | 346 kts | 243° |
| 2026-05-04 15:46 | 35.32709 | -112.97463 | 33841 ft | 346 kts | 242° |
| 2026-05-04 15:47 | 35.30351 | -113.02443 | 33835 ft | 346 kts | 242° |
| 2026-05-04 15:47 | 35.27946 | -113.07537 | 33834 ft | 346 kts | 242° |
| 2026-05-04 15:48 | 35.25536 | -113.12628 | 33831 ft | 345 kts | 242° |
| 2026-05-04 15:48 | 35.21920 | -113.20234 | 33832 ft | 345 kts | 242° |
| 2026-05-04 15:49 | 35.19522 | -113.25261 | 33816 ft | 344 kts | 242° |
| 2026-05-04 15:49 | 35.17104 | -113.30311 | 33819 ft | 344 kts | 242° |
| 2026-05-04 15:50 | 35.14689 | -113.35361 | 33813 ft | 344 kts | 242° |
| 2026-05-04 15:50 | 35.12270 | -113.40425 | 33798 ft | 347 kts | 242° |
| 2026-05-04 15:51 | 35.09827 | -113.45526 | 33810 ft | 347 kts | 242° |
| 2026-05-04 15:51 | 35.07396 | -113.50586 | 33796 ft | 345 kts | 242° |
| 2026-05-04 15:52 | 35.04967 | -113.55642 | 33802 ft | 345 kts | 242° |
| 2026-05-04 15:52 | 35.02534 | -113.60693 | 33796 ft | 345 kts | 242° |
| 2026-05-04 15:53 | 35.00087 | -113.65738 | 33800 ft | 346 kts | 242° |
| 2026-05-04 15:53 | 34.97640 | -113.70783 | 33792 ft | 345 kts | 241° |
| 2026-05-04 15:54 | 34.95204 | -113.75813 | 33815 ft | 345 kts | 241° |
| 2026-05-04 15:54 | 34.92777 | -113.80830 | 33798 ft | 343 kts | 241° |
| 2026-05-04 15:55 | 34.90350 | -113.85829 | 33802 ft | 343 kts | 241° |
| 2026-05-04 15:55 | 34.87920 | -113.90822 | 33810 ft | 343 kts | 241° |
| 2026-05-04 15:56 | 34.85435 | -113.95775 | 33814 ft | 343 kts | 240° |
| 2026-05-04 15:56 | 34.82920 | -114.00709 | 33811 ft | 343 kts | 240° |
| 2026-05-04 15:57 | 34.80402 | -114.05596 | 33814 ft | 343 kts | 240° |
| 2026-05-04 15:57 | 34.77866 | -114.10508 | 33837 ft | 342 kts | 240° |
| 2026-05-04 15:58 | 34.75336 | -114.15406 | 33855 ft | 342 kts | 240° |
| 2026-05-04 15:58 | 34.72801 | -114.20304 | 33853 ft | 342 kts | 239° |
| 2026-05-04 15:59 | 34.70254 | -114.25225 | 33891 ft | 344 kts | 240° |
| 2026-05-04 15:59 | 34.67701 | -114.30148 | 33911 ft | 344 kts | 240° |
| 2026-05-04 16:00 | 34.65146 | -114.35061 | 33921 ft | 344 kts | 240° |
| 2026-05-04 16:00 | 34.62408 | -114.39828 | 33880 ft | 346 kts | 233° |
| 2026-05-04 16:01 | 34.59283 | -114.44159 | 33873 ft | 345 kts | 232° |
| 2026-05-04 16:01 | 34.56105 | -114.48534 | 33878 ft | 346 kts | 233° |
| 2026-05-04 16:02 | 34.52931 | -114.52925 | 33877 ft | 346 kts | 232° |
| 2026-05-04 16:03 | 34.48155 | -114.59484 | 33866 ft | 346 kts | 232° |
| 2026-05-04 16:03 | 34.44977 | -114.63850 | 33846 ft | 345 kts | 232° |
| 2026-05-04 16:04 | 34.41802 | -114.68222 | 33857 ft | 346 kts | 232° |
| 2026-05-04 16:04 | 34.37031 | -114.74776 | 33848 ft | 347 kts | 232° |
| 2026-05-04 16:05 | 34.33851 | -114.79132 | 33860 ft | 347 kts | 232° |
| 2026-05-04 16:06 | 34.29025 | -114.85732 | 33876 ft | 348 kts | 232° |
| 2026-05-04 16:07 | 34.22629 | -114.94460 | 33873 ft | 348 kts | 232° |
| 2026-05-04 16:08 | 34.16201 | -115.03216 | 33897 ft | 347 kts | 232° |
| 2026-05-04 16:09 | 34.08205 | -115.14085 | 33893 ft | 346 kts | 232° |
| 2026-05-04 16:10 | 34.01802 | -115.22750 | 33892 ft | 349 kts | 232° |
| 2026-05-04 16:11 | 33.95335 | -115.31512 | 33910 ft | 351 kts | 232° |
| 2026-05-04 16:12 | 33.85669 | -115.44564 | 33923 ft | 347 kts | 232° |
| 2026-05-04 16:13 | 33.79242 | -115.53232 | 33930 ft | 348 kts | 232° |
| 2026-05-04 16:14 | 33.72801 | -115.61897 | 33930 ft | 347 kts | 232° |
| 2026-05-04 16:16 | 33.64803 | -115.72531 | 33937 ft | 346 kts | 231° |
| 2026-05-04 16:17 | 33.57556 | -115.83944 | 33938 ft | 344 kts | 237° |
| 2026-05-04 16:18 | 33.52583 | -115.92573 | 33941 ft | 344 kts | 237° |
| 2026-05-04 16:19 | 33.45808 | -116.04276 | 32779 ft | 334 kts | 236° |
| 2026-05-04 16:20 | 33.41919 | -116.10963 | 30252 ft | 319 kts | 235° |
| 2026-05-04 16:20 | 33.39421 | -116.15263 | 28487 ft | 310 kts | 235° |
| 2026-05-04 16:21 | 33.35820 | -116.21448 | 26063 ft | 297 kts | 235° |
| 2026-05-04 16:22 | 33.33176 | -116.25181 | 24598 ft | 295 kts | 221° |
| 2026-05-04 16:22 | 33.27257 | -116.27545 | 22572 ft | 309 kts | 197° |
| 2026-05-04 16:23 | 33.21315 | -116.29513 | 21116 ft | 292 kts | 209° |
| 2026-05-04 16:24 | 33.15265 | -116.35574 | 18399 ft | 299 kts | 217° |
| 2026-05-04 16:25 | 33.11519 | -116.37986 | 16724 ft | 312 kts | 212° |
| 2026-05-04 16:26 | 33.03498 | -116.42711 | 14249 ft | 332 kts | 211° |
| 2026-05-04 16:26 | 32.97866 | -116.47084 | 13236 ft | 300 kts | 224° |
| 2026-05-04 16:27 | 32.94769 | -116.50242 | 12228 ft | 291 kts | 223° |
| 2026-05-04 16:28 | 32.90187 | -116.54878 | 11257 ft | 274 kts | 223° |
| 2026-05-04 16:28 | 32.85972 | -116.59117 | 10259 ft | 258 kts | 223° |
| 2026-05-04 16:29 | 32.80574 | -116.64561 | 8766 ft | 254 kts | 223° |
| 2026-05-04 16:30 | 32.76794 | -116.68912 | 7544 ft | 254 kts | 240° |
| 2026-05-04 16:31 | 32.74997 | -116.72751 | 6334 ft | 267 kts | 242° |
| 2026-05-04 16:31 | 32.72460 | -116.78163 | 5940 ft | 230 kts | 242° |
| 2026-05-04 16:32 | 32.70395 | -116.82822 | 5826 ft | 200 kts | 252° |
| 2026-05-04 16:33 | 32.69458 | -116.85910 | 5267 ft | 196 kts | 251° |
| 2026-05-04 16:33 | 32.68514 | -116.88979 | 4798 ft | 200 kts | 252° |
| 2026-05-04 16:34 | 32.67604 | -116.92088 | 4250 ft | 199 kts | 252° |
| 2026-05-04 16:34 | 32.67274 | -116.93675 | 4080 ft | 198 kts | 269° |
| 2026-05-04 16:35 | 32.68204 | -116.97960 | 3726 ft | 152 kts | 287° |
| 2026-05-04 16:35 | 32.68999 | -117.01201 | 3159 ft | 135 kts | 287° |
| 2026-05-04 16:36 | 32.69287 | -117.02286 | 2951 ft | 135 kts | 287° |
| 2026-05-04 16:36 | 32.69790 | -117.04380 | 2644 ft | 133 kts | 286° |
| 2026-05-04 16:37 | 32.70305 | -117.06457 | 2177 ft | 129 kts | 286° |
| 2026-05-04 16:37 | 32.70553 | -117.07474 | 1976 ft | 128 kts | 285° |
| 2026-05-04 16:37 | 32.71050 | -117.09537 | 1821 ft | 130 kts | 287° |
| 2026-05-04 16:38 | 32.71551 | -117.11586 | 1396 ft | 127 kts | 286° |
| 2026-05-04 16:39 | 32.72287 | -117.14609 | 745 ft | 127 kts | 286° |
| 2026-05-04 16:39 | 32.72794 | -117.16613 | 361 ft | 126 kts | 289° |
| 2026-05-04 16:40 | 32.73279 | -117.18608 | 37 ft | 123 kts | 287° |
| 2026-05-04 16:40 | 32.73447 | -117.19398 | 28 ft | 14 kts | 248° |
| 2026-05-04 16:41 | 32.73410 | -117.19600 | 29 ft | 6 kts | 276° |
| 2026-05-04 16:41 | 32.73465 | -117.19828 | 29 ft | 13 kts | 287° |
| 2026-05-04 16:42 | 32.73453 | -117.20055 | 27 ft | 7 kts | 195° |
| 2026-05-04 16:43 | 32.73414 | -117.20079 | 26 ft | 0 kts | 210° |